Time;durP1;ratioP1;P1;durP2;ratioP2;P2;SDS_P1;SDS_P2;PMS_P1;PMS_P2;Temp;Humidity;BMP_temperature;BMP_pressure;BME280_temperature;BME280_humidity;BME280_pressure;Samples;Min_cycle;Max_cycle;Signal;HPM_P1;HPM_P2
2022/10/13 00:01:05;;;;;;;12.30;10.68;;;13.40;99.90;;;;;;5032639;28;20457;-62
2022/10/13 00:03:31;;;;;;;13.05;10.70;;;13.30;99.90;;;;;;5047836;28;20189;-64
2022/10/13 00:05:56;;;;;;;11.93;10.63;;;13.50;99.90;;;;;;5035319;28;20351;-62
2022/10/13 00:08:24;;;;;;;15.03;10.20;;;13.30;99.90;;;;;;5044495;28;20217;-63
2022/10/13 00:10:51;;;;;;;13.82;10.63;;;13.30;99.90;;;;;;5028385;28;20240;-63
2022/10/13 00:13:18;;;;;;;13.60;10.25;;;13.00;99.90;;;;;;5026423;28;20193;-62
2022/10/13 00:15:45;;;;;;;13.45;12.05;;;12.80;99.90;;;;;;5029785;28;20284;-62
2022/10/13 00:18:11;;;;;;;12.25;10.43;;;13.20;99.90;;;;;;5028469;28;20186;-62
2022/10/13 00:20:42;;;;;;;14.57;11.40;;;12.90;99.90;;;;;;5028910;28;20198;-62
2022/10/13 00:23:08;;;;;;;13.30;10.02;;;13.00;99.90;;;;;;5019391;28;20186;-62
2022/10/13 00:25:33;;;;;;;14.00;10.70;;;12.80;99.90;;;;;;5030218;28;20199;-62
2022/10/13 00:27:59;;;;;;;12.13;10.87;;;13.00;99.90;;;;;;5026269;28;20201;-62
2022/10/13 00:30:24;;;;;;;17.50;11.90;;;13.10;99.90;;;;;;5029839;28;20198;-62
2022/10/13 00:32:50;;;;;;;16.90;13.40;;;12.80;99.90;;;;;;5029915;28;20196;-62
2022/10/13 00:35:15;;;;;;;17.97;13.40;;;12.90;99.90;;;;;;5029983;28;20206;-62
2022/10/13 00:37:41;;;;;;;17.60;13.57;;;13.10;99.90;;;;;;5027060;28;20198;-62
2022/10/13 00:40:07;;;;;;;17.30;14.23;;;13.10;99.90;;;;;;5030440;28;20258;-63
2022/10/13 00:42:33;;;;;;;19.27;13.63;;;13.30;99.90;;;;;;5026860;28;20233;-63
2022/10/13 00:45:06;;;;;;;15.90;13.57;;;13.30;99.90;;;;;;5030205;28;20194;-64
2022/10/13 00:47:42;;;;;;;17.63;13.25;;;13.60;99.90;;;;;;5038207;28;20239;-63
2022/10/13 00:50:12;;;;;;;21.48;13.45;;;13.60;99.90;;;;;;5042376;28;20580;-63
2022/10/13 00:52:40;;;;;;;18.27;13.82;;;13.50;99.90;;;;;;5027353;28;20232;-62
2022/10/13 00:55:08;;;;;;;19.77;12.98;;;13.50;99.90;;;;;;5033840;28;20277;-63
2022/10/13 00:57:34;;;;;;;22.38;14.40;;;13.50;99.90;;;;;;5034441;28;20202;-63
2022/10/13 01:00:02;;;;;;;15.27;13.10;;;13.50;99.90;;;;;;5045304;28;20227;-63
2022/10/13 01:02:31;;;;;;;23.08;15.18;;;13.50;99.90;;;;;;5041750;28;20249;-65
2022/10/13 01:04:58;;;;;;;17.30;13.30;;;13.60;99.90;;;;;;5035905;28;20185;-63
2022/10/13 01:07:24;;;;;;;18.50;14.07;;;13.60;99.90;;;;;;5052999;28;20561;-64
2022/10/13 01:09:49;;;;;;;17.95;13.48;;;13.60;99.90;;;;;;5051118;28;20293;-63
2022/10/13 01:12:56;;;;;;;21.60;13.60;;;13.50;99.90;;;;;;5025352;28;20724;-63
2022/10/13 01:15:31;;;;;;;19.30;14.02;;;13.50;99.90;;;;;;5026978;28;20678;-61
2022/10/13 01:18:06;;;;;;;18.63;14.15;;;13.40;99.90;;;;;;5048334;28;20181;-61
2022/10/13 01:20:35;;;;;;;19.90;15.05;;;13.20;99.90;;;;;;5034598;28;20976;-62
2022/10/13 01:23:15;;;;;;;19.17;14.20;;;13.20;99.90;;;;;;5036663;28;20186;-61
2022/10/13 01:26:26;;;;;;;21.23;15.55;;;12.90;99.90;;;;;;5032536;28;20209;-61
2022/10/13 01:29:22;;;;;;;18.80;14.68;;;12.70;99.90;;;;;;5039247;28;20612;-61
2022/10/13 01:32:15;;;;;;;19.15;15.07;;;12.90;99.90;;;;;;5028240;28;20194;-61
2022/10/13 01:34:59;;;;;;;19.60;14.15;;;12.80;99.90;;;;;;5038840;28;20189;-61
2022/10/13 01:37:33;;;;;;;15.73;13.45;;;12.80;99.90;;;;;;5048344;28;20200;-61
2022/10/13 01:40:12;;;;;;;18.77;13.48;;;12.90;99.90;;;;;;5031912;28;20185;-61
2022/10/13 01:42:55;;;;;;;16.60;14.52;;;12.90;99.90;;;;;;5032184;28;20178;-61
2022/10/13 01:45:27;;;;;;;22.77;14.55;;;12.90;99.90;;;;;;5037918;28;20724;-62
2022/10/13 01:47:53;;;;;;;19.38;14.30;;;12.80;99.90;;;;;;5042963;28;20211;-61
2022/10/13 01:50:19;;;;;;;18.13;14.00;;;13.00;99.90;;;;;;5049246;28;20268;-61
2022/10/13 01:52:47;;;;;;;19.83;14.50;;;12.80;99.90;;;;;;5043951;28;20190;-62
2022/10/13 01:55:13;;;;;;;19.25;13.80;;;12.90;99.90;;;;;;5035076;28;20186;-61
2022/10/13 01:57:41;;;;;;;18.63;15.15;;;13.10;99.90;;;;;;5036101;28;20212;-61
2022/10/13 02:00:11;;;;;;;19.38;14.05;;;13.10;99.90;;;;;;5036406;28;20272;-61
2022/10/13 02:02:54;;;;;;;19.67;14.02;;;13.00;99.90;;;;;;5041983;28;20188;-61
2022/10/13 02:05:35;;;;;;;20.77;13.95;;;12.90;99.90;;;;;;5038699;28;20632;-61
2022/10/13 02:08:16;;;;;;;20.65;16.00;;;12.90;99.90;;;;;;5048199;28;20690;-61
2022/10/13 02:11:01;;;;;;;22.35;15.82;;;13.10;99.90;;;;;;5041999;28;20194;-61
2022/10/13 02:13:30;;;;;;;20.85;14.80;;;13.20;99.90;;;;;;5029317;28;20178;-61
2022/10/13 02:15:59;;;;;;;19.88;15.52;;;12.90;99.90;;;;;;5031068;28;20246;-61
2022/10/13 02:18:32;;;;;;;21.13;16.20;;;13.30;99.90;;;;;;5031121;28;20194;-61
2022/10/13 02:20:58;;;;;;;18.65;14.55;;;13.50;99.90;;;;;;5029251;28;20201;-63
2022/10/13 02:23:25;;;;;;;19.27;14.40;;;13.40;99.90;;;;;;5032270;28;20194;-62
2022/10/13 02:25:50;;;;;;;24.40;14.40;;;13.40;99.90;;;;;;5030002;28;20210;-61
2022/10/13 02:28:16;;;;;;;17.53;12.73;;;13.60;99.90;;;;;;5028517;28;20224;-61
2022/10/13 02:30:44;;;;;;;19.50;14.30;;;13.70;99.90;;;;;;5031385;28;20303;-61
2022/10/13 02:33:11;;;;;;;18.35;13.35;;;13.40;99.90;;;;;;5031407;28;20186;-61
2022/10/13 02:35:37;;;;;;;16.15;12.85;;;13.50;99.90;;;;;;5026633;28;20202;-61
2022/10/13 02:38:02;;;;;;;20.67;14.80;;;13.80;99.90;;;;;;5031942;28;20553;-61
2022/10/13 02:40:28;;;;;;;18.27;13.87;;;13.50;99.90;;;;;;5038472;28;20205;-61
2022/10/13 02:42:54;;;;;;;20.00;14.40;;;13.40;99.90;;;;;;5022691;28;20654;-61
2022/10/13 02:45:19;;;;;;;19.80;13.80;;;13.50;99.90;;;;;;5042118;28;20516;-61
2022/10/13 02:47:45;;;;;;;19.40;14.83;;;13.70;99.90;;;;;;5049613;28;20206;-61
2022/10/13 02:50:11;;;;;;;18.60;13.70;;;13.90;99.90;;;;;;5036369;28;20858;-61
2022/10/13 02:52:37;;;;;;;17.60;14.30;;;13.70;99.90;;;;;;5035201;28;20727;-61
2022/10/13 02:55:03;;;;;;;17.97;13.50;;;13.60;99.90;;;;;;5040023;28;20191;-61
2022/10/13 02:57:29;;;;;;;20.55;13.75;;;13.60;99.90;;;;;;5035764;28;20461;-61
2022/10/13 02:59:55;;;;;;;22.47;14.40;;;13.60;99.90;;;;;;5035956;28;20612;-61
2022/10/13 03:02:20;;;;;;;18.50;14.90;;;13.70;99.90;;;;;;5040726;28;20195;-61
2022/10/13 03:04:47;;;;;;;21.03;14.23;;;13.60;99.90;;;;;;5036781;28;20923;-61
2022/10/13 03:07:13;;;;;;;21.73;15.38;;;13.80;99.90;;;;;;5019513;28;20252;-61
2022/10/13 03:09:39;;;;;;;18.27;13.27;;;13.70;99.90;;;;;;5030357;28;20217;-61
2022/10/13 03:12:05;;;;;;;19.80;13.73;;;13.60;99.90;;;;;;5024084;28;20999;-61
2022/10/13 03:14:30;;;;;;;17.87;13.13;;;13.50;99.90;;;;;;5026393;28;20186;-61
2022/10/13 03:16:56;;;;;;;18.63;13.70;;;13.90;99.90;;;;;;5029185;28;20213;-61
2022/10/13 03:19:22;;;;;;;18.10;14.37;;;13.70;99.90;;;;;;5027057;28;20197;-61
2022/10/13 03:21:47;;;;;;;18.27;14.40;;;13.70;99.90;;;;;;5030374;28;20215;-61
2022/10/13 03:24:13;;;;;;;17.03;13.90;;;13.80;99.90;;;;;;5030196;28;20186;-61
2022/10/13 03:26:38;;;;;;;23.80;15.60;;;13.80;99.90;;;;;;5026520;28;20384;-62
2022/10/13 03:29:04;;;;;;;19.63;13.70;;;14.10;99.90;;;;;;5030429;28;20683;-61
2022/10/13 03:31:29;;;;;;;19.53;14.53;;;13.80;99.90;;;;;;5030903;28;20190;-61
2022/10/13 03:33:55;;;;;;;20.90;13.30;;;14.10;99.90;;;;;;5028828;28;20193;-61
2022/10/13 03:36:21;;;;;;;26.37;13.30;;;14.20;99.90;;;;;;5018984;28;20210;-61
2022/10/13 03:38:46;;;;;;;17.93;14.10;;;14.00;99.90;;;;;;5029689;28;20278;-61
2022/10/13 03:41:15;;;;;;;16.17;12.90;;;14.00;99.90;;;;;;5029269;28;20190;-61
2022/10/13 03:43:42;;;;;;;15.57;13.40;;;13.90;99.90;;;;;;5027385;28;20194;-62
2022/10/13 03:46:09;;;;;;;17.35;13.63;;;14.10;99.90;;;;;;5028041;28;20217;-61
2022/10/13 03:48:35;;;;;;;19.63;14.27;;;14.10;99.90;;;;;;5030375;28;20206;-61
2022/10/13 03:51:09;;;;;;;18.97;14.10;;;14.10;99.90;;;;;;5029361;28;20313;-60
2022/10/13 03:53:34;;;;;;;19.85;14.88;;;14.10;99.90;;;;;;5019431;28;20503;-61
2022/10/13 03:56:00;;;;;;;19.07;14.47;;;14.10;99.90;;;;;;5034357;28;20197;-61
2022/10/13 03:58:29;;;;;;;20.27;14.33;;;14.20;99.90;;;;;;5026818;28;20247;-61
2022/10/13 04:00:56;;;;;;;16.95;13.27;;;14.10;99.90;;;;;;5028804;28;20441;-61
2022/10/13 04:03:23;;;;;;;20.73;14.15;;;14.20;99.90;;;;;;5026306;28;20183;-61
2022/10/13 04:05:48;;;;;;;18.45;14.18;;;14.20;99.90;;;;;;5025939;28;20691;-61
2022/10/13 04:08:14;;;;;;;19.00;14.17;;;14.30;99.90;;;;;;5024145;28;20216;-61
2022/10/13 04:10:40;;;;;;;16.05;12.15;;;14.30;99.90;;;;;;5029878;28;20555;-61
2022/10/13 04:13:06;;;;;;;17.17;13.35;;;14.40;99.90;;;;;;5026193;28;20186;-61
2022/10/13 04:15:36;;;;;;;14.40;12.63;;;14.30;99.90;;;;;;5028403;28;20178;-61
2022/10/13 04:18:02;;;;;;;15.80;12.70;;;14.30;99.90;;;;;;5027896;28;20185;-61
2022/10/13 04:20:28;;;;;;;16.73;12.73;;;14.50;99.90;;;;;;5028712;28;20194;-62
2022/10/13 04:22:53;;;;;;;16.73;12.53;;;14.40;99.90;;;;;;5028033;28;20461;-61
2022/10/13 04:25:19;;;;;;;19.37;14.70;;;14.40;99.90;;;;;;5029426;28;20593;-61
2022/10/13 04:27:46;;;;;;;14.33;12.80;;;14.40;99.90;;;;;;5023985;28;20229;-61
2022/10/13 04:30:13;;;;;;;15.65;12.93;;;14.70;99.90;;;;;;5029611;28;20274;-61
2022/10/13 04:32:38;;;;;;;22.75;12.65;;;14.50;99.90;;;;;;5032740;28;20185;-61
2022/10/13 04:35:04;;;;;;;17.53;13.40;;;14.40;99.90;;;;;;5029266;28;20186;-61
2022/10/13 04:37:30;;;;;;;17.27;13.40;;;14.30;99.90;;;;;;5029644;28;20263;-61
2022/10/13 04:39:55;;;;;;;14.80;13.13;;;14.30;99.90;;;;;;5023899;28;20962;-61
2022/10/13 04:42:21;;;;;;;16.00;12.53;;;14.50;99.90;;;;;;5019025;28;20652;-61
2022/10/13 04:44:46;;;;;;;17.57;13.67;;;14.30;99.90;;;;;;5026973;28;20287;-61
2022/10/13 04:47:12;;;;;;;16.73;13.27;;;14.30;99.90;;;;;;5030160;28;20218;-61
2022/10/13 04:49:37;;;;;;;15.10;12.30;;;14.50;99.90;;;;;;5031776;28;20225;-61
2022/10/13 04:52:03;;;;;;;15.43;13.00;;;14.40;99.90;;;;;;5029945;28;20189;-62
2022/10/13 04:54:28;;;;;;;15.87;12.43;;;14.40;99.90;;;;;;5032635;28;20707;-61
2022/10/13 04:56:54;;;;;;;15.03;12.20;;;14.60;99.90;;;;;;5026847;28;20599;-61
2022/10/13 04:59:20;;;;;;;16.30;12.87;;;14.30;99.90;;;;;;5032945;28;20236;-61
2022/10/13 05:01:45;;;;;;;18.37;11.83;;;14.50;99.90;;;;;;5027608;28;20221;-61
2022/10/13 05:04:11;;;;;;;18.23;12.50;;;14.20;99.90;;;;;;5028784;28;20197;-61
2022/10/13 05:06:39;;;;;;;13.30;11.80;;;14.20;99.90;;;;;;5025584;28;20376;-61
2022/10/13 05:09:05;;;;;;;16.20;12.75;;;14.20;99.90;;;;;;5029309;28;20213;-61
2022/10/13 05:11:31;;;;;;;20.70;13.93;;;14.00;99.90;;;;;;5030681;28;20194;-61
2022/10/13 05:13:57;;;;;;;15.98;11.70;;;14.10;99.90;;;;;;5030882;28;20652;-61
2022/10/13 05:16:24;;;;;;;14.80;12.67;;;14.10;99.90;;;;;;5031901;28;20312;-62
2022/10/13 05:18:52;;;;;;;23.05;12.82;;;14.20;99.90;;;;;;5027371;28;20444;-61
2022/10/13 05:21:24;;;;;;;17.35;12.18;;;14.10;99.90;;;;;;5027725;28;20193;-62
2022/10/13 05:23:53;;;;;;;17.58;13.10;;;13.90;99.90;;;;;;5026978;28;20218;-61
2022/10/13 05:26:18;;;;;;;14.90;11.55;;;13.70;99.90;;;;;;5027497;28;20415;-61
2022/10/13 05:28:45;;;;;;;17.80;13.77;;;14.10;99.90;;;;;;5024363;28;20220;-61
2022/10/13 05:31:23;;;;;;;17.38;12.38;;;13.90;99.90;;;;;;5032402;28;20190;-61
2022/10/13 05:33:49;;;;;;;16.70;12.32;;;14.00;99.90;;;;;;5026296;28;20237;-61
2022/10/13 05:36:20;;;;;;;15.98;12.45;;;13.90;99.90;;;;;;5027185;28;20209;-70
2022/10/13 05:38:54;;;;;;;19.25;11.52;;;14.00;99.90;;;;;;5027915;28;20723;-73
2022/10/13 05:41:21;;;;;;;12.80;10.95;;;13.90;99.90;;;;;;5026935;28;20186;-76
2022/10/13 05:43:47;;;;;;;15.75;12.68;;;13.90;99.90;;;;;;5028658;28;20540;-74
2022/10/13 05:46:13;;;;;;;17.00;12.27;;;13.90;99.90;;;;;;5028148;28;20734;-69
2022/10/13 05:48:39;;;;;;;14.45;12.20;;;13.90;99.90;;;;;;5030116;28;20603;-78
2022/10/13 05:51:15;;;;;;;19.20;11.03;;;14.00;99.90;;;;;;5030202;28;20179;-61
2022/10/13 05:53:46;;;;;;;18.67;11.93;;;14.00;99.90;;;;;;5030076;28;20265;-61
2022/10/13 05:56:16;;;;;;;16.02;11.70;;;14.00;99.90;;;;;;5032743;28;20263;-62
2022/10/13 05:58:46;;;;;;;14.40;11.45;;;14.20;99.90;;;;;;5027932;28;20286;-61
2022/10/13 06:01:16;;;;;;;17.27;11.95;;;13.90;99.90;;;;;;5025255;28;20202;-62
2022/10/13 06:03:42;;;;;;;16.50;11.82;;;13.90;99.90;;;;;;5031255;28;20190;-61
2022/10/13 06:06:08;;;;;;;18.23;12.40;;;13.90;99.90;;;;;;5028723;28;20217;-61
2022/10/13 06:08:35;;;;;;;14.43;11.70;;;14.10;99.90;;;;;;5029515;28;20237;-62
2022/10/13 06:11:02;;;;;;;19.25;12.68;;;14.40;99.90;;;;;;5029801;28;21216;-62
2022/10/13 06:13:27;;;;;;;15.82;12.18;;;14.10;99.90;;;;;;5026440;28;20651;-62
2022/10/13 06:15:53;;;;;;;15.43;11.93;;;14.00;99.90;;;;;;5026156;28;20201;-64
2022/10/13 06:18:19;;;;;;;15.90;12.30;;;14.00;99.90;;;;;;5024002;28;20702;-75
2022/10/13 06:20:44;;;;;;;20.83;13.27;;;14.10;99.90;;;;;;5025273;28;20198;-70
2022/10/13 06:23:10;;;;;;;21.33;12.77;;;14.10;99.90;;;;;;5023987;28;20664;-70
2022/10/13 06:25:35;;;;;;;18.70;12.80;;;14.00;99.90;;;;;;5028151;28;20194;-72
2022/10/13 06:28:01;;;;;;;17.67;13.80;;;13.80;99.90;;;;;;5030056;28;20205;-67
2022/10/13 06:30:27;;;;;;;19.10;13.47;;;14.40;99.90;;;;;;5026797;28;20189;-68
2022/10/13 06:32:54;;;;;;;16.85;12.95;;;14.50;99.90;;;;;;5028154;28;20599;-70
2022/10/13 06:35:23;;;;;;;18.75;13.75;;;14.40;99.90;;;;;;5024125;28;20178;-67
2022/10/13 06:37:49;;;;;;;15.55;11.95;;;14.00;99.90;;;;;;5031453;28;20182;-68
2022/10/13 06:40:15;;;;;;;15.20;11.80;;;14.40;99.90;;;;;;5023009;28;20320;-67
2022/10/13 06:42:40;;;;;;;15.23;11.90;;;14.40;99.90;;;;;;5026116;28;20545;-69
2022/10/13 06:45:06;;;;;;;22.97;12.47;;;14.40;99.90;;;;;;5028939;28;20914;-71
2022/10/13 06:47:32;;;;;;;17.67;13.00;;;14.50;99.90;;;;;;5029595;28;20304;-68
2022/10/13 06:49:57;;;;;;;16.03;12.70;;;14.50;99.90;;;;;;5028289;28;20464;-69
2022/10/13 06:52:23;;;;;;;15.53;11.13;;;14.50;99.90;;;;;;5028479;28;20543;-66
2022/10/13 06:54:48;;;;;;;13.63;12.10;;;14.80;99.90;;;;;;5028827;28;20232;-66
2022/10/13 06:57:14;;;;;;;16.43;12.63;;;14.50;99.90;;;;;;5030036;28;20255;-66
2022/10/13 06:59:40;;;;;;;16.03;12.47;;;14.60;99.90;;;;;;5027788;28;20562;-69
2022/10/13 07:02:05;;;;;;;15.30;11.30;;;14.60;99.90;;;;;;5024632;28;20186;-69
2022/10/13 07:04:31;;;;;;;17.33;11.50;;;14.40;99.90;;;;;;5028635;28;20647;-68
2022/10/13 07:06:57;;;;;;;20.07;11.50;;;14.50;99.90;;;;;;5022631;28;20597;-68
2022/10/13 07:09:22;;;;;;;15.90;10.63;;;14.60;99.90;;;;;;5027582;28;20206;-68
2022/10/13 07:11:49;;;;;;;15.03;11.13;;;14.50;99.90;;;;;;5024947;28;20651;-68
2022/10/13 07:14:14;;;;;;;14.75;11.13;;;14.60;99.90;;;;;;5023021;28;20189;-69
2022/10/13 07:16:40;;;;;;;15.83;11.33;;;14.70;99.90;;;;;;5023357;28;20198;-70
2022/10/13 07:19:06;;;;;;;17.13;10.80;;;14.60;99.90;;;;;;5029646;28;20221;-70
2022/10/13 07:21:32;;;;;;;18.17;11.60;;;14.60;99.90;;;;;;5026989;28;20232;-73
2022/10/13 07:23:57;;;;;;;14.77;11.20;;;14.70;99.90;;;;;;5028650;28;20198;-61
2022/10/13 07:26:23;;;;;;;15.30;11.50;;;14.70;99.90;;;;;;5027290;28;20464;-61
2022/10/13 07:28:49;;;;;;;20.80;11.40;;;15.10;99.90;;;;;;5033651;28;20225;-73
2022/10/13 07:31:17;;;;;;;13.63;11.00;;;15.00;99.90;;;;;;5027667;28;20182;-72
2022/10/13 07:33:45;;;;;;;13.35;10.43;;;15.10;99.90;;;;;;5029757;28;20644;-71
2022/10/13 07:36:12;;;;;;;15.45;11.32;;;15.20;99.90;;;;;;5027202;28;20210;-71
2022/10/13 07:38:38;;;;;;;14.75;11.18;;;15.10;99.90;;;;;;5026522;28;20182;-71
2022/10/13 07:41:05;;;;;;;17.77;10.57;;;15.20;99.90;;;;;;5027649;28;20190;-69
2022/10/13 07:43:31;;;;;;;15.02;11.40;;;15.10;99.90;;;;;;5027534;28;20186;-70
2022/10/13 07:45:58;;;;;;;19.30;11.82;;;15.40;99.90;;;;;;5026801;28;20211;-76
2022/10/13 07:48:25;;;;;;;14.73;11.32;;;15.60;99.90;;;;;;5025291;28;20218;-68
2022/10/13 07:50:50;;;;;;;13.63;10.75;;;15.50;99.90;;;;;;5025127;28;20182;-68
2022/10/13 07:53:16;;;;;;;14.90;10.40;;;15.70;99.90;;;;;;5026182;28;20189;-69
2022/10/13 07:55:42;;;;;;;14.10;10.17;;;15.60;99.90;;;;;;5027803;28;20809;-70
2022/10/13 07:58:08;;;;;;;13.63;10.67;;;15.80;99.90;;;;;;5024846;28;20718;-69
2022/10/13 08:00:34;;;;;;;13.05;10.15;;;15.90;99.90;;;;;;5027822;28;20247;-70
2022/10/13 08:03:00;;;;;;;15.60;9.93;;;15.90;99.90;;;;;;5020940;28;20328;-71
2022/10/13 08:05:25;;;;;;;14.10;10.67;;;15.80;99.90;;;;;;5029902;28;20182;-71
2022/10/13 08:07:51;;;;;;;14.10;9.83;;;15.80;99.90;;;;;;5032908;28;20190;-80
2022/10/13 08:10:17;;;;;;;11.47;9.57;;;16.00;99.90;;;;;;5033135;28;20221;-74
2022/10/13 08:12:43;;;;;;;12.67;9.50;;;16.30;99.90;;;;;;5028508;28;20186;-74
2022/10/13 08:15:09;;;;;;;14.30;10.10;;;16.30;99.90;;;;;;5025636;28;20440;-74
2022/10/13 08:17:35;;;;;;;12.75;9.60;;;16.40;99.90;;;;;;5032053;28;20339;-74
2022/10/13 08:20:01;;;;;;;13.70;10.05;;;16.40;99.90;;;;;;5032688;28;20676;-74
2022/10/13 08:22:27;;;;;;;14.20;10.50;;;16.70;99.90;;;;;;5032475;28;20305;-73
2022/10/13 08:24:53;;;;;;;13.93;9.80;;;16.80;99.90;;;;;;5033071;28;20498;-73
2022/10/13 08:27:24;;;;;;;11.40;10.00;;;16.50;99.90;;;;;;5033177;28;20213;-74
2022/10/13 08:29:50;;;;;;;14.00;9.88;;;16.50;99.90;;;;;;5031248;28;20472;-73
2022/10/13 08:32:16;;;;;;;17.75;9.77;;;16.40;99.90;;;;;;5030807;28;20188;-70
2022/10/13 08:34:42;;;;;;;11.82;9.98;;;16.60;99.90;;;;;;5026953;28;20205;-71
2022/10/13 08:37:17;;;;;;;16.87;10.03;;;16.40;99.90;;;;;;5032456;28;20202;-68
2022/10/13 08:39:44;;;;;;;13.00;9.27;;;16.50;99.90;;;;;;5028724;28;20192;-68
2022/10/13 08:42:21;;;;;;;12.05;9.65;;;16.70;99.90;;;;;;5024761;28;20852;-69
2022/10/13 08:44:54;;;;;;;16.85;9.82;;;16.90;99.90;;;;;;5031665;28;20192;-67
2022/10/13 08:47:22;;;;;;;10.85;9.23;;;16.70;99.90;;;;;;5033516;28;20296;-69
2022/10/13 08:49:49;;;;;;;12.80;9.48;;;16.70;99.90;;;;;;5032607;28;20209;-69
2022/10/13 08:52:39;;;;;;;14.13;9.55;;;16.90;99.90;;;;;;5053005;22;20184;-79
2022/10/13 08:55:10;;;;;;;12.20;8.80;;;17.00;99.90;;;;;;5007476;28;20302;-79
2022/10/13 08:57:35;;;;;;;9.55;8.13;;;17.30;99.90;;;;;;5025231;28;20231;-78
2022/10/13 09:00:02;;;;;;;13.20;8.90;;;17.90;99.90;;;;;;5027753;28;20268;-80
2022/10/13 09:02:30;;;;;;;13.73;8.45;;;17.10;99.90;;;;;;5010428;28;20211;-81
2022/10/13 09:05:00;;;;;;;10.48;8.70;;;17.20;99.90;;;;;;5002364;28;20573;-80
2022/10/13 09:07:30;;;;;;;11.55;9.10;;;17.40;99.90;;;;;;5006911;28;20652;-81
2022/10/13 09:09:55;;;;;;;13.35;8.52;;;17.40;99.90;;;;;;5007717;28;20215;-80
2022/10/13 09:12:25;;;;;;;11.37;8.93;;;17.70;99.90;;;;;;4998184;28;20819;-76
2022/10/13 09:15:04;;;;;;;9.35;7.25;;;17.30;99.90;;;;;;5007985;28;20190;-81
2022/10/13 09:17:31;;;;;;;9.98;8.60;;;17.70;99.90;;;;;;5005890;28;20687;-81
2022/10/13 09:20:03;;;;;;;11.40;7.97;;;17.80;99.90;;;;;;5004702;28;20256;-80
2022/10/13 09:22:32;;;;;;;9.48;7.90;;;18.10;99.90;;;;;;4998516;28;20203;-81
2022/10/13 09:25:10;;;;;;;11.55;7.95;;;17.80;99.90;;;;;;5006362;28;20695;-80
2022/10/13 09:27:58;;;;;;;9.40;7.45;;;17.80;99.90;;;;;;5001841;28;20198;-80
2022/10/13 09:30:30;;;;;;;8.45;7.55;;;18.40;99.90;;;;;;5008899;28;20285;-79
2022/10/13 09:33:06;;;;;;;11.65;7.10;;;18.20;99.90;;;;;;5008693;28;20179;-80
2022/10/13 09:35:33;;;;;;;13.23;8.05;;;18.80;99.90;;;;;;5008394;28;20847;-81
2022/10/13 09:38:09;;;;;;;10.50;7.85;;;18.40;99.90;;;;;;5005958;28;20191;-76
2022/10/13 09:40:35;;;;;;;9.00;7.40;;;18.60;99.90;;;;;;5003806;28;20201;-76
2022/10/13 09:43:18;;;;;;;8.07;7.03;;;18.30;99.90;;;;;;5005618;28;20194;-76
2022/10/13 09:45:44;;;;;;;11.27;6.40;;;18.20;99.90;;;;;;5006904;28;20540;-76
2022/10/13 09:48:20;;;;;;;11.93;7.30;;;18.70;99.90;;;;;;5002382;28;20618;-76
2022/10/13 09:50:49;;;;;;;10.95;6.70;;;18.10;99.90;;;;;;5009239;28;20237;-81
2022/10/13 09:53:38;;;;;;;6.25;5.65;;;18.30;99.90;;;;;;5008597;28;20210;-81
2022/10/13 09:56:42;;;;;;;7.10;6.40;;;18.40;99.90;;;;;;5006094;28;20184;-81
2022/10/13 09:59:32;;;;;;;9.00;6.43;;;18.30;99.90;;;;;;5007292;28;20186;-79
2022/10/13 10:02:02;;;;;;;11.00;6.85;;;18.70;99.90;;;;;;5005241;28;20210;-79
2022/10/13 10:04:36;;;;;;;6.65;5.90;;;18.60;99.90;;;;;;5009627;28;20574;-79
2022/10/13 10:07:14;;;;;;;8.30;6.82;;;18.70;99.90;;;;;;5007411;28;20227;-79
2022/10/13 10:10:00;;;;;;;7.93;6.43;;;18.00;99.90;;;;;;5005018;28;20218;-78
2022/10/13 10:12:29;;;;;;;8.85;6.65;;;18.70;99.90;;;;;;4999296;28;20207;-79
2022/10/13 10:14:55;;;;;;;7.55;6.78;;;18.40;99.90;;;;;;5001865;28;20217;-78
2022/10/13 10:17:47;;;;;;;9.13;6.23;;;18.80;99.90;;;;;;5005116;28;20256;-79
2022/10/13 10:20:32;;;;;;;9.13;6.15;;;18.60;99.90;;;;;;4999861;28;20860;-78
2022/10/13 10:23:19;;;;;;;11.73;6.90;;;18.70;99.90;;;;;;5005549;28;20179;-78
2022/10/13 10:25:44;;;;;;;9.35;7.90;;;18.40;99.90;;;;;;5006087;28;20181;-79
2022/10/13 10:28:35;;;;;;;8.57;6.27;;;18.30;99.90;;;;;;5000953;28;20210;-79
2022/10/13 10:31:29;;;;;;;7.57;6.70;;;18.40;99.90;;;;;;5004541;28;20757;-78
2022/10/13 10:34:15;;;;;;;10.65;6.47;;;18.40;99.90;;;;;;5003099;28;20178;-77
2022/10/13 10:36:45;;;;;;;8.02;7.10;;;18.60;99.90;;;;;;5006227;28;20183;-78
2022/10/13 10:39:22;;;;;;;7.00;6.30;;;18.80;99.90;;;;;;5006512;28;20190;-78
2022/10/13 10:42:08;;;;;;;6.70;5.90;;;18.10;99.90;;;;;;5011322;28;20306;-78
2022/10/13 10:44:41;;;;;;;9.02;6.75;;;18.20;99.90;;;;;;5007016;28;20236;-79
2022/10/13 10:47:32;;;;;;;10.27;7.45;;;18.60;99.90;;;;;;5007684;28;20182;-79
2022/10/13 10:50:04;;;;;;;11.23;7.20;;;18.70;99.90;;;;;;4993265;28;20215;-79
2022/10/13 10:53:02;;;;;;;8.50;7.07;;;18.20;99.90;;;;;;5003733;28;20484;-79
2022/10/13 10:55:48;;;;;;;7.65;6.82;;;18.20;99.90;;;;;;5000751;28;20218;-79
2022/10/13 10:58:36;;;;;;;9.45;6.47;;;18.20;99.90;;;;;;5001360;28;20183;-79
2022/10/13 11:01:09;;;;;;;9.43;6.95;;;18.20;99.90;;;;;;5003415;28;20686;-81
2022/10/13 11:04:03;;;;;;;7.60;6.63;;;18.30;99.90;;;;;;5002310;28;20187;-77
2022/10/13 11:06:36;;;;;;;9.95;6.25;;;18.70;99.90;;;;;;5005201;28;20241;-82
2022/10/13 11:09:04;;;;;;;8.35;6.45;;;18.30;99.90;;;;;;5006095;28;20624;-77
2022/10/13 11:11:33;;;;;;;11.38;7.03;;;18.40;99.90;;;;;;5008444;28;20305;-77
2022/10/13 11:14:04;;;;;;;7.80;6.35;;;18.50;99.90;;;;;;5009167;28;20183;-77
2022/10/13 11:16:38;;;;;;;10.05;7.55;;;18.60;99.90;;;;;;5002191;28;20178;-77
2022/10/13 11:19:27;;;;;;;6.78;5.57;;;18.00;99.90;;;;;;5000932;28;20187;-82
2022/10/13 11:22:11;;;;;;;9.35;6.32;;;18.60;99.90;;;;;;4991025;28;20234;-80
2022/10/13 11:24:39;;;;;;;7.90;6.88;;;18.90;99.90;;;;;;5004481;28;20266;-79
2022/10/13 11:27:10;;;;;;;8.02;7.18;;;18.80;99.90;;;;;;5004478;28;20245;-79
2022/10/13 11:29:47;;;;;;;6.72;6.05;;;18.90;99.90;;;;;;5005860;28;20260;-79
2022/10/13 11:32:27;;;;;;;11.60;6.20;;;18.50;99.90;;;;;;5023899;28;20706;-79
2022/10/13 11:35:05;;;;;;;10.70;7.55;;;18.80;99.90;;;;;;5004425;28;20191;-81
2022/10/13 11:37:48;;;;;;;9.88;6.75;;;18.50;99.90;;;;;;4996810;28;20209;-79
2022/10/13 11:40:23;;;;;;;8.38;6.05;;;18.50;99.90;;;;;;5004227;28;20211;-79
2022/10/13 11:43:11;;;;;;;7.00;6.22;;;18.70;99.90;;;;;;5005019;28;20236;-79
2022/10/13 11:45:39;;;;;;;8.05;6.90;;;19.10;99.90;;;;;;5004731;28;20213;-79
2022/10/13 11:48:42;;;;;;;9.30;7.72;;;18.70;99.90;;;;;;5021050;28;20278;-79
2022/10/13 11:51:29;;;;;;;6.95;5.85;;;18.80;99.90;;;;;;5000406;28;20679;-78
2022/10/13 11:54:04;;;;;;;8.40;6.70;;;19.00;99.90;;;;;;5001880;28;20202;-78
2022/10/13 11:56:52;;;;;;;6.97;6.18;;;19.20;99.90;;;;;;5000365;28;20634;-78
2022/10/13 11:59:25;;;;;;;7.25;5.43;;;19.70;99.90;;;;;;5008767;28;20183;-77
2022/10/13 12:02:05;;;;;;;9.90;6.65;;;19.90;99.90;;;;;;5005549;28;20206;-77
2022/10/13 12:04:31;;;;;;;5.47;4.97;;;19.50;99.90;;;;;;5002303;28;20284;-78
2022/10/13 12:07:01;;;;;;;6.90;5.20;;;19.50;99.90;;;;;;5001673;28;20226;-77
2022/10/13 12:09:28;;;;;;;8.60;6.20;;;20.10;99.90;;;;;;5005821;28;20277;-78
2022/10/13 12:12:12;;;;;;;5.55;5.05;;;19.90;99.40;;;;;;4999001;28;20289;-78
2022/10/13 12:14:42;;;;;;;6.85;5.70;;;19.70;99.20;;;;;;5002367;28;20183;-78
2022/10/13 12:17:26;;;;;;;7.50;5.25;;;20.00;99.20;;;;;;5002467;28;20588;-77
2022/10/13 12:19:53;;;;;;;5.85;4.97;;;19.60;99.00;;;;;;5006732;28;20187;-78
2022/10/13 12:22:19;;;;;;;5.88;4.88;;;19.20;98.80;;;;;;5004946;28;20221;-77
2022/10/13 12:24:57;;;;;;;6.10;4.80;;;19.50;99.30;;;;;;5003713;28;20206;-78
2022/10/13 12:27:23;;;;;;;6.90;5.13;;;19.90;99.10;;;;;;5004981;28;20183;-78
2022/10/13 12:29:48;;;;;;;4.90;4.43;;;20.20;99.40;;;;;;5008569;28;20678;-77
2022/10/13 12:32:23;;;;;;;6.10;4.67;;;20.00;99.00;;;;;;5007966;28;20233;-78
2022/10/13 12:34:49;;;;;;;8.13;4.85;;;19.90;98.60;;;;;;5012306;28;20231;-78
2022/10/13 12:37:29;;;;;;;18.20;4.97;;;19.80;98.40;;;;;;5005092;28;20183;-78
2022/10/13 12:39:56;;;;;;;5.47;4.70;;;19.80;98.40;;;;;;5008669;28;20674;-78
2022/10/13 12:42:30;;;;;;;7.93;5.00;;;20.20;98.50;;;;;;5006758;28;20202;-78
2022/10/13 12:44:59;;;;;;;7.60;4.20;;;20.20;98.50;;;;;;5007776;28;20187;-78
2022/10/13 12:47:48;;;;;;;8.27;6.15;;;19.80;98.40;;;;;;5006463;28;20187;-78
2022/10/13 12:50:35;;;;;;;6.20;5.32;;;19.70;98.40;;;;;;5010061;28;20224;-78